createdAt,value
2023-03-04T00:00:45.859Z,99.90
2023-03-04T00:03:15.793Z,99.90
2023-03-04T00:05:43.793Z,99.90
2023-03-04T00:08:11.504Z,99.90
2023-03-04T00:10:39.455Z,99.90
2023-03-04T00:13:07.114Z,99.90
2023-03-04T00:15:34.833Z,99.90
2023-03-04T00:18:03.156Z,99.90
2023-03-04T00:20:30.916Z,99.90
2023-03-04T00:22:59.290Z,99.90
2023-03-04T00:25:26.954Z,99.90
2023-03-04T00:27:54.788Z,99.90
2023-03-04T00:30:22.466Z,99.90
2023-03-04T00:32:50.396Z,99.90
2023-03-04T00:35:18.518Z,99.90
2023-03-04T00:37:46.312Z,99.90
2023-03-04T00:40:14.334Z,99.90
2023-03-04T00:42:41.976Z,99.90
2023-03-04T00:45:10.369Z,99.90
2023-03-04T00:47:38.181Z,99.90
2023-03-04T00:50:06.432Z,99.90
2023-03-04T00:52:34.413Z,99.90
2023-03-04T00:55:02.426Z,99.90
2023-03-04T00:57:30.109Z,99.90
2023-03-04T00:59:57.798Z,99.90
2023-03-04T01:02:26.529Z,99.90
2023-03-04T01:04:54.383Z,99.90
2023-03-04T01:07:23.026Z,99.90
2023-03-04T01:09:50.860Z,99.90
2023-03-04T01:12:19.556Z,99.90
2023-03-04T01:14:47.288Z,99.90
2023-03-04T01:17:15.029Z,99.90
2023-03-04T01:19:44.245Z,99.90
2023-03-04T01:22:13.711Z,99.90
2023-03-04T01:24:42.149Z,99.90
2023-03-04T01:27:10.071Z,99.90
2023-03-04T01:29:37.707Z,99.90
2023-03-04T01:32:05.742Z,99.90
2023-03-04T01:34:33.663Z,99.90
2023-03-04T01:37:01.379Z,99.90
2023-03-04T01:39:29.176Z,99.90
2023-03-04T01:41:56.906Z,99.90
2023-03-04T01:44:24.765Z,99.90
2023-03-04T01:46:55.024Z,99.90
2023-03-04T01:49:23.151Z,99.90
2023-03-04T01:51:53.996Z,99.90
2023-03-04T01:54:23.171Z,99.90
2023-03-04T01:56:52.490Z,99.90
2023-03-04T01:59:25.491Z,99.90
2023-03-04T02:01:56.085Z,99.90
2023-03-04T02:04:29.540Z,99.90
2023-03-04T02:06:59.516Z,99.90
2023-03-04T02:09:30.018Z,99.90
2023-03-04T02:11:58.099Z,99.90
2023-03-04T02:14:26.903Z,99.90
2023-03-04T02:16:54.732Z,99.90
2023-03-04T02:19:47.110Z,99.90
2023-03-04T02:22:14.924Z,99.90
2023-03-04T02:25:03.687Z,99.90
2023-03-04T02:27:31.823Z,99.90
2023-03-04T02:29:59.757Z,99.90
2023-03-04T02:32:28.359Z,99.90
2023-03-04T02:34:56.783Z,99.90
2023-03-04T02:37:24.586Z,99.90
2023-03-04T02:39:54.841Z,99.90
2023-03-04T02:42:22.733Z,99.90
2023-03-04T02:45:00.161Z,99.90
2023-03-04T02:47:27.919Z,99.90
2023-03-04T02:49:56.984Z,99.90
2023-03-04T02:52:26.663Z,99.90
2023-03-04T02:54:54.493Z,99.90
2023-03-04T02:57:22.600Z,99.90
2023-03-04T02:59:54.386Z,99.90
2023-03-04T03:02:25.476Z,99.90
2023-03-04T03:04:53.247Z,99.90
2023-03-04T03:07:22.245Z,99.90
2023-03-04T03:09:50.201Z,99.90
2023-03-04T03:12:19.171Z,99.90
2023-03-04T03:14:46.870Z,99.90
2023-03-04T03:17:18.021Z,99.90
2023-03-04T03:19:45.722Z,99.90
2023-03-04T03:22:13.499Z,99.90
2023-03-04T03:24:41.300Z,99.90
2023-03-04T03:27:08.958Z,99.90
2023-03-04T03:29:36.731Z,99.90
2023-03-04T03:32:08.067Z,99.90
2023-03-04T03:34:35.909Z,99.90
2023-03-04T03:37:04.000Z,99.90
2023-03-04T03:39:31.686Z,99.90
2023-03-04T03:41:59.525Z,99.90
2023-03-04T03:44:27.197Z,99.90
2023-03-04T03:46:54.908Z,99.90
2023-03-04T03:49:22.544Z,99.90
2023-03-04T03:51:50.289Z,99.90
2023-03-04T03:54:18.057Z,99.90
2023-03-04T03:56:46.320Z,99.90
2023-03-04T03:59:14.214Z,99.90
2023-03-04T04:01:42.320Z,99.90
2023-03-04T04:04:10.070Z,99.90
2023-03-04T04:06:37.761Z,99.90
2023-03-04T04:09:05.449Z,99.90
2023-03-04T04:11:33.422Z,99.90
2023-03-04T04:14:01.133Z,99.90
2023-03-04T04:16:29.082Z,99.90
2023-03-04T04:18:57.017Z,99.90
2023-03-04T04:21:24.725Z,99.90
2023-03-04T04:23:52.521Z,99.90
2023-03-04T04:26:20.286Z,99.90
2023-03-04T04:28:48.373Z,99.90
2023-03-04T04:31:16.172Z,99.90
2023-03-04T04:33:43.909Z,99.90
2023-03-04T04:36:16.222Z,99.90
2023-03-04T04:38:45.336Z,99.90
2023-03-04T04:41:25.891Z,99.90
2023-03-04T04:43:54.062Z,99.90
2023-03-04T04:46:21.915Z,99.90
2023-03-04T04:48:50.478Z,99.90
2023-03-04T04:51:18.241Z,99.90
2023-03-04T04:53:46.041Z,99.90
2023-03-04T04:56:17.137Z,99.90
2023-03-04T04:58:46.009Z,99.90
2023-03-04T05:01:14.584Z,99.90
2023-03-04T05:03:42.760Z,99.90
2023-03-04T05:06:12.991Z,99.90
2023-03-04T05:08:43.942Z,99.90
2023-03-04T05:11:11.691Z,99.90
2023-03-04T05:13:39.514Z,99.90
2023-03-04T05:16:08.319Z,99.90
2023-03-04T05:18:36.481Z,99.90
2023-03-04T05:21:06.066Z,99.90
2023-03-04T05:23:37.097Z,99.90
2023-03-04T05:26:06.089Z,99.90
2023-03-04T05:28:35.233Z,99.90
2023-03-04T05:31:03.932Z,99.90
2023-03-04T05:33:31.871Z,99.90
2023-03-04T05:35:59.792Z,99.90
2023-03-04T05:38:27.635Z,99.90
2023-03-04T05:41:00.978Z,99.90
2023-03-04T05:43:29.125Z,99.90
2023-03-04T05:45:56.895Z,99.90
2023-03-04T05:48:25.017Z,99.90
2023-03-04T05:51:01.187Z,99.90
2023-03-04T05:53:29.529Z,99.90
2023-03-04T05:55:59.430Z,99.90
2023-03-04T05:58:27.531Z,99.90
2023-03-04T06:00:55.230Z,99.90
2023-03-04T06:03:23.481Z,99.90
2023-03-04T06:05:52.138Z,99.90
2023-03-04T06:08:19.916Z,99.90
2023-03-04T06:10:47.624Z,99.90
2023-03-04T06:13:15.375Z,99.90
2023-03-04T06:15:43.060Z,99.90
2023-03-04T06:18:11.155Z,99.90
2023-03-04T06:20:38.945Z,99.90
2023-03-04T06:23:06.632Z,99.90
2023-03-04T06:25:37.165Z,99.90
2023-03-04T06:28:04.985Z,99.90
2023-03-04T06:30:32.799Z,99.90
2023-03-04T06:33:00.493Z,99.90
2023-03-04T06:35:28.334Z,99.90
2023-03-04T06:37:56.318Z,99.90
2023-03-04T06:40:24.041Z,99.90
2023-03-04T06:42:53.224Z,99.90
2023-03-04T06:45:20.943Z,99.90
2023-03-04T06:47:51.784Z,99.90
2023-03-04T06:50:19.583Z,99.90
2023-03-04T06:52:50.122Z,99.90
2023-03-04T06:55:17.930Z,99.90
2023-03-04T06:57:48.172Z,99.90
2023-03-04T07:00:19.974Z,99.90
2023-03-04T07:02:47.761Z,99.90
2023-03-04T07:05:15.684Z,99.90
2023-03-04T07:07:43.543Z,99.90
2023-03-04T07:10:12.077Z,99.90
2023-03-04T07:12:39.784Z,99.90
2023-03-04T07:15:08.007Z,99.90
2023-03-04T07:17:35.801Z,99.90
2023-03-04T07:20:03.714Z,99.90
2023-03-04T07:22:31.390Z,99.90
2023-03-04T07:25:00.181Z,99.90
2023-03-04T07:27:27.941Z,99.90
2023-03-04T07:29:55.634Z,99.90
2023-03-04T07:32:23.492Z,99.90
2023-03-04T07:35:00.201Z,99.90
2023-03-04T07:37:27.944Z,99.90
2023-03-04T07:39:56.281Z,99.90
2023-03-04T07:42:24.074Z,99.90
2023-03-04T07:45:01.655Z,99.90
2023-03-04T07:47:29.612Z,99.90
2023-03-04T07:49:57.329Z,99.90
2023-03-04T07:52:30.127Z,99.90
2023-03-04T07:54:59.916Z,99.90
2023-03-04T07:57:27.592Z,99.90
2023-03-04T07:59:58.495Z,99.90
2023-03-04T08:02:28.184Z,99.90
2023-03-04T08:04:55.974Z,99.90
2023-03-04T08:07:26.975Z,99.90
2023-03-04T08:09:55.070Z,99.90
2023-03-04T08:12:24.938Z,99.90
2023-03-04T08:14:52.893Z,99.90
2023-03-04T08:17:20.674Z,99.90
2023-03-04T08:19:48.328Z,99.90
2023-03-04T08:22:16.614Z,99.90
2023-03-04T08:24:44.304Z,99.90
2023-03-04T08:27:12.234Z,99.90
2023-03-04T08:29:40.039Z,99.90
2023-03-04T08:32:07.821Z,99.90
2023-03-04T08:34:35.668Z,99.90
2023-03-04T08:37:05.694Z,99.90
2023-03-04T08:39:35.807Z,99.90
2023-03-04T08:42:04.494Z,99.90
2023-03-04T08:44:32.160Z,99.90
2023-03-04T08:46:59.801Z,99.90
2023-03-04T08:49:27.451Z,99.90
2023-03-04T08:51:55.180Z,99.90
2023-03-04T08:54:22.849Z,99.90
2023-03-04T08:56:50.559Z,99.90
2023-03-04T08:59:18.258Z,99.90
2023-03-04T09:01:45.960Z,99.90
2023-03-04T09:04:13.777Z,99.90
2023-03-04T09:06:41.477Z,99.90
2023-03-04T09:09:09.356Z,99.80
2023-03-04T09:11:37.126Z,99.80
2023-03-04T09:14:04.878Z,98.50
2023-03-04T09:16:32.697Z,98.80
2023-03-04T09:19:01.912Z,97.30
2023-03-04T09:21:29.681Z,96.50
2023-03-04T09:23:57.333Z,96.10
2023-03-04T09:26:27.862Z,94.20
2023-03-04T09:29:00.542Z,93.50
2023-03-04T09:31:30.043Z,94.30
2023-03-04T09:34:00.910Z,92.60
2023-03-04T09:36:28.671Z,92.30
2023-03-04T09:39:00.416Z,91.50
2023-03-04T09:41:39.388Z,90.20
2023-03-04T09:44:22.599Z,90.40
2023-03-04T09:46:52.145Z,90.70
2023-03-04T09:49:22.323Z,88.10
2023-03-04T09:52:19.060Z,87.30
2023-03-04T09:54:56.083Z,86.30
2023-03-04T09:57:43.781Z,87.50
2023-03-04T10:00:22.353Z,86.40
2023-03-04T10:03:13.279Z,86.70
2023-03-04T10:05:49.816Z,87.10
2023-03-04T10:08:32.532Z,85.90
2023-03-04T10:11:02.345Z,86.90
2023-03-04T10:13:54.161Z,84.70
2023-03-04T10:16:26.454Z,83.80
2023-03-04T10:18:58.960Z,83.70
2023-03-04T10:21:37.892Z,81.60
2023-03-04T10:24:14.779Z,82.10
2023-03-04T10:26:49.780Z,83.60
2023-03-04T10:29:20.400Z,81.60
2023-03-04T10:31:49.832Z,80.10
2023-03-04T10:34:18.818Z,79.90
2023-03-04T10:36:56.155Z,80.20
2023-03-04T10:39:47.602Z,79.40
2023-03-04T10:42:15.292Z,77.70
2023-03-04T10:44:56.062Z,81.70
2023-03-04T10:47:26.439Z,77.90
2023-03-04T10:50:15.060Z,78.20
2023-03-04T10:52:50.400Z,78.60
2023-03-04T10:55:22.285Z,76.20
2023-03-04T10:57:55.208Z,75.40
2023-03-04T11:00:35.945Z,77.00
2023-03-04T11:03:27.942Z,74.70
2023-03-04T11:06:20.638Z,75.00
2023-03-04T11:08:57.139Z,76.20
2023-03-04T11:11:38.864Z,72.20
2023-03-04T11:14:58.765Z,72.80
2023-03-04T11:17:31.832Z,73.70
2023-03-04T11:20:27.590Z,74.70
2023-03-04T11:23:28.187Z,74.20
2023-03-04T11:26:20.024Z,71.80
2023-03-04T11:29:16.024Z,72.90
2023-03-04T11:31:50.734Z,73.00
2023-03-04T11:34:27.335Z,73.40
2023-03-04T11:37:00.524Z,71.90
2023-03-04T11:39:38.564Z,70.10
2023-03-04T11:42:35.614Z,70.90
2023-03-04T11:45:28.964Z,69.60
2023-03-04T11:48:31.528Z,70.60
2023-03-04T11:51:19.312Z,70.70
2023-03-04T11:54:08.444Z,70.40
2023-03-04T11:56:44.657Z,69.90
2023-03-04T11:59:37.138Z,68.30
2023-03-04T12:02:18.422Z,67.90
2023-03-04T12:05:12.828Z,70.20
2023-03-04T12:08:11.508Z,69.50
2023-03-04T12:10:52.038Z,69.00
2023-03-04T12:13:38.162Z,68.70
2023-03-04T12:16:14.862Z,68.50
2023-03-04T12:18:54.966Z,69.00
2023-03-04T12:21:50.059Z,68.30
2023-03-04T12:24:26.832Z,69.00
2023-03-04T12:27:45.060Z,67.70
2023-03-04T12:30:40.036Z,69.60
2023-03-04T12:33:32.675Z,68.90
2023-03-04T12:36:31.322Z,69.70
2023-03-04T12:39:26.794Z,71.30
2023-03-04T12:42:23.802Z,71.80
2023-03-04T12:45:16.015Z,72.80
2023-03-04T12:48:21.064Z,73.50
2023-03-04T12:50:48.669Z,71.80
2023-03-04T12:53:47.199Z,74.70
2023-03-04T12:56:44.007Z,75.10
2023-03-04T12:59:18.371Z,73.40
2023-03-04T13:02:13.406Z,72.60
2023-03-04T13:04:58.855Z,74.50
2023-03-04T13:07:55.036Z,74.20
2023-03-04T13:10:26.274Z,73.60
2023-03-04T13:12:55.833Z,73.90
2023-03-04T13:15:34.477Z,74.00
2023-03-04T13:18:25.348Z,73.70
2023-03-04T13:21:11.817Z,74.20
2023-03-04T13:23:40.145Z,74.60
2023-03-04T13:26:19.213Z,74.00
2023-03-04T13:28:52.259Z,74.60
2023-03-04T13:31:24.863Z,74.40
2023-03-04T13:33:55.822Z,75.50
2023-03-04T13:36:58.228Z,75.00
2023-03-04T13:39:43.814Z,74.10
2023-03-04T13:42:56.755Z,73.60
2023-03-04T13:45:39.226Z,75.00
2023-03-04T13:48:26.629Z,74.70
2023-03-04T13:50:54.435Z,74.20
2023-03-04T13:53:31.285Z,75.00
2023-03-04T13:56:32.088Z,75.40
2023-03-04T13:59:15.425Z,75.90
2023-03-04T14:01:43.099Z,75.80
2023-03-04T14:04:18.303Z,74.70
2023-03-04T14:06:47.633Z,75.10
2023-03-04T14:09:16.875Z,76.20
2023-03-04T14:11:44.894Z,76.10
2023-03-04T14:14:33.517Z,76.20
2023-03-04T14:17:05.914Z,74.70
2023-03-04T14:19:44.846Z,74.80
2023-03-04T14:22:27.049Z,76.90
2023-03-04T14:25:13.664Z,75.60
2023-03-04T14:27:42.000Z,76.70
2023-03-04T14:30:28.782Z,76.60
2023-03-04T14:33:00.816Z,76.40
2023-03-04T14:35:31.194Z,76.30
2023-03-04T14:38:04.151Z,76.40
2023-03-04T14:40:42.190Z,76.40
2023-03-04T14:43:39.070Z,76.40
2023-03-04T14:47:06.501Z,77.20
2023-03-04T14:50:32.123Z,76.90
2023-03-04T14:53:30.855Z,77.30
2023-03-04T14:56:36.425Z,76.80
2023-03-04T14:59:04.233Z,77.30
2023-03-04T15:01:36.398Z,77.60
2023-03-04T15:04:13.989Z,78.20
2023-03-04T15:06:51.496Z,78.90
2023-03-04T15:09:21.335Z,80.00
2023-03-04T15:11:51.964Z,78.40
2023-03-04T15:14:47.456Z,78.80
2023-03-04T15:17:38.500Z,79.40
2023-03-04T15:20:06.292Z,79.10
2023-03-04T15:22:53.866Z,79.50
2023-03-04T15:25:22.683Z,79.80
2023-03-04T15:27:54.664Z,80.10
2023-03-04T15:30:32.356Z,81.00
2023-03-04T15:33:01.163Z,81.00
2023-03-04T15:35:32.246Z,81.10
2023-03-04T15:38:00.382Z,82.60
2023-03-04T15:40:35.263Z,83.60
2023-03-04T15:43:04.723Z,84.00
2023-03-04T15:45:38.460Z,84.20
2023-03-04T15:48:08.281Z,85.40
2023-03-04T15:50:43.142Z,87.40
2023-03-04T15:53:19.786Z,86.40
2023-03-04T15:55:47.689Z,87.40
2023-03-04T15:58:16.312Z,88.20
2023-03-04T16:00:44.162Z,88.80
2023-03-04T16:03:18.353Z,88.60
2023-03-04T16:05:48.048Z,88.50
2023-03-04T16:08:18.621Z,89.10
2023-03-04T16:10:47.381Z,88.80
2023-03-04T16:13:21.666Z,89.70
2023-03-04T16:15:50.046Z,90.20
2023-03-04T16:18:18.006Z,90.30
2023-03-04T16:20:48.286Z,90.20
2023-03-04T16:23:21.253Z,90.60
2023-03-04T16:25:52.737Z,90.90
2023-03-04T16:28:20.828Z,91.20
2023-03-04T16:30:52.230Z,91.10
2023-03-04T16:33:20.026Z,92.10
2023-03-04T16:35:47.834Z,92.00
2023-03-04T16:38:41.935Z,92.30
2023-03-04T16:41:13.273Z,92.00
2023-03-04T16:43:42.946Z,92.30
2023-03-04T16:46:14.103Z,92.50
2023-03-04T16:48:42.094Z,92.90
2023-03-04T16:51:15.318Z,93.60
2023-03-04T16:53:48.194Z,93.40
2023-03-04T16:56:18.232Z,94.10
2023-03-04T16:58:46.903Z,94.30
2023-03-04T17:01:27.036Z,94.50
2023-03-04T17:03:56.564Z,94.90
2023-03-04T17:06:26.208Z,94.90
2023-03-04T17:08:54.771Z,95.20
2023-03-04T17:11:24.371Z,96.50
2023-03-04T17:14:01.968Z,98.40
2023-03-04T17:16:33.685Z,99.30
2023-03-04T17:19:01.449Z,99.30
2023-03-04T17:21:29.170Z,99.60
2023-03-04T17:23:56.906Z,99.90
2023-03-04T17:26:25.187Z,99.90
2023-03-04T17:28:52.858Z,99.90
2023-03-04T17:31:21.228Z,99.90
2023-03-04T17:33:49.753Z,99.90
2023-03-04T17:36:18.968Z,99.90
2023-03-04T17:38:46.782Z,99.90
2023-03-04T17:41:17.736Z,99.90
2023-03-04T17:43:48.047Z,99.90
2023-03-04T17:46:19.526Z,99.90
2023-03-04T17:48:47.609Z,99.90
2023-03-04T17:51:15.629Z,99.90
2023-03-04T17:53:43.372Z,99.90
2023-03-04T17:56:15.127Z,99.90
2023-03-04T17:58:43.405Z,99.90
2023-03-04T18:01:19.605Z,99.90
2023-03-04T18:03:47.734Z,99.90
2023-03-04T18:06:15.455Z,99.90
2023-03-04T18:08:43.393Z,99.90
2023-03-04T18:11:11.954Z,99.90
2023-03-04T18:13:41.273Z,99.90
2023-03-04T18:16:09.821Z,99.90
2023-03-04T18:18:38.124Z,99.90
2023-03-04T18:21:06.190Z,99.90
2023-03-04T18:23:33.957Z,99.90
2023-03-04T18:26:02.723Z,99.90
2023-03-04T18:28:31.643Z,99.90
2023-03-04T18:31:10.525Z,99.90
2023-03-04T18:33:40.010Z,99.90
2023-03-04T18:36:09.600Z,99.90
2023-03-04T18:38:39.426Z,99.90
2023-03-04T18:41:10.353Z,99.90
2023-03-04T18:43:38.106Z,99.90
2023-03-04T18:46:17.874Z,99.90
2023-03-04T18:48:54.271Z,99.90
2023-03-04T18:51:22.311Z,99.90
2023-03-04T18:53:49.953Z,99.90
2023-03-04T18:56:22.759Z,99.90
2023-03-04T18:58:51.566Z,99.90
2023-03-04T19:01:22.204Z,99.90
2023-03-04T19:03:50.909Z,99.90
2023-03-04T19:06:19.073Z,99.90
2023-03-04T19:08:46.992Z,99.90
2023-03-04T19:11:14.740Z,99.90
2023-03-04T19:13:42.489Z,99.90
2023-03-04T19:16:10.508Z,99.90
2023-03-04T19:18:41.504Z,99.90
2023-03-04T19:21:11.767Z,99.90
2023-03-04T19:23:40.145Z,99.90
2023-03-04T19:26:08.404Z,99.90
2023-03-04T19:28:36.388Z,99.90
2023-03-04T19:31:09.308Z,99.90
2023-03-04T19:33:41.603Z,99.90
2023-03-04T19:36:10.173Z,99.90
2023-03-04T19:38:38.051Z,99.90
2023-03-04T19:41:13.953Z,99.90
2023-03-04T19:43:42.038Z,99.90
2023-03-04T19:46:10.828Z,99.90
2023-03-04T19:48:40.666Z,99.90
2023-03-04T19:51:20.679Z,99.90
2023-03-04T19:53:50.878Z,99.90
2023-03-04T19:56:19.622Z,99.90
2023-03-04T19:58:48.396Z,99.90
2023-03-04T20:01:28.538Z,99.90
2023-03-04T20:03:58.522Z,99.90
2023-03-04T20:06:27.243Z,99.90
2023-03-04T20:09:00.252Z,99.90
2023-03-04T20:11:29.655Z,99.90
2023-03-04T20:14:01.524Z,99.90
2023-03-04T20:16:29.572Z,99.90
2023-03-04T20:19:00.636Z,99.90
2023-03-04T20:21:31.219Z,99.90
2023-03-04T20:24:00.989Z,99.90
2023-03-04T20:26:30.455Z,99.90
2023-03-04T20:28:58.773Z,99.90
2023-03-04T20:31:31.527Z,99.90
2023-03-04T20:34:00.952Z,99.90
2023-03-04T20:36:30.341Z,99.90
2023-03-04T20:39:04.317Z,99.90
2023-03-04T20:41:35.907Z,99.90
2023-03-04T20:44:04.932Z,99.90
2023-03-04T20:46:43.027Z,99.90
2023-03-04T20:49:22.273Z,99.90
2023-03-04T20:51:51.153Z,99.90
2023-03-04T20:54:19.686Z,99.90
2023-03-04T20:56:48.448Z,99.90
2023-03-04T20:59:16.514Z,99.90
2023-03-04T21:01:46.157Z,99.90
2023-03-04T21:04:14.042Z,99.90
2023-03-04T21:06:42.068Z,99.90
2023-03-04T21:09:13.692Z,99.90
2023-03-04T21:11:42.059Z,99.90
2023-03-04T21:14:15.852Z,99.90
2023-03-04T21:16:43.873Z,99.90
2023-03-04T21:19:20.993Z,99.90
2023-03-04T21:21:50.291Z,99.90
2023-03-04T21:24:24.259Z,99.90
2023-03-04T21:26:53.222Z,99.90
2023-03-04T21:29:23.846Z,99.90
2023-03-04T21:32:27.310Z,99.90
2023-03-04T21:34:55.968Z,99.90
2023-03-04T21:37:25.453Z,99.90
2023-03-04T21:39:54.568Z,99.90
2023-03-04T21:42:22.597Z,99.90
2023-03-04T21:44:51.605Z,99.90
2023-03-04T21:47:21.092Z,99.90
2023-03-04T21:49:49.701Z,99.90
2023-03-04T21:52:19.358Z,99.90
2023-03-04T21:54:47.722Z,99.90
2023-03-04T21:57:16.216Z,99.90
2023-03-04T21:59:43.878Z,99.90
2023-03-04T22:02:22.682Z,99.90
2023-03-04T22:04:50.683Z,99.90
2023-03-04T22:07:18.323Z,99.90
2023-03-04T22:09:46.097Z,99.90
2023-03-04T22:12:15.804Z,99.90
2023-03-04T22:14:44.132Z,99.90
2023-03-04T22:17:11.959Z,99.90
2023-03-04T22:19:39.714Z,99.90
2023-03-04T22:22:07.565Z,99.90
2023-03-04T22:24:35.338Z,99.90
2023-03-04T22:27:03.043Z,99.90
2023-03-04T22:29:30.717Z,99.90
2023-03-04T22:31:58.499Z,99.90
2023-03-04T22:34:26.297Z,99.90
2023-03-04T22:36:54.043Z,99.90
2023-03-04T22:39:23.192Z,99.90
2023-03-04T22:41:51.097Z,99.90
2023-03-04T22:44:19.070Z,99.90
2023-03-04T22:46:46.927Z,99.90
2023-03-04T22:49:14.860Z,99.90
2023-03-04T22:51:44.346Z,99.90
2023-03-04T22:54:14.751Z,99.90
2023-03-04T22:56:43.261Z,99.90
2023-03-04T22:59:11.042Z,99.90
2023-03-04T23:01:38.829Z,99.90
2023-03-04T23:04:06.642Z,99.90
2023-03-04T23:06:34.634Z,99.90
2023-03-04T23:09:02.417Z,99.90
2023-03-04T23:11:32.895Z,99.90
2023-03-04T23:14:05.377Z,99.90
2023-03-04T23:16:37.311Z,99.90
2023-03-04T23:19:06.658Z,99.90
2023-03-04T23:21:35.307Z,99.90
2023-03-04T23:24:05.463Z,99.90
2023-03-04T23:26:36.256Z,99.90
2023-03-04T23:29:06.270Z,99.90
2023-03-04T23:31:34.574Z,99.90
2023-03-04T23:34:03.675Z,99.90
2023-03-04T23:36:33.567Z,99.90
2023-03-04T23:39:01.975Z,99.90
2023-03-04T23:41:31.380Z,99.90
2023-03-04T23:44:00.207Z,99.90
2023-03-04T23:46:28.698Z,99.90
2023-03-04T23:48:56.910Z,99.90
2023-03-04T23:51:27.916Z,99.90
2023-03-04T23:53:56.502Z,99.90
2023-03-04T23:56:27.593Z,99.90
2023-03-04T23:58:56.893Z,99.90
